Time;durP1;ratioP1;P1;durP2;ratioP2;P2;SDS_P1;SDS_P2;PMS_P1;PMS_P2;Temp;Humidity;BMP_temperature;BMP_pressure;BME280_temperature;BME280_humidity;BME280_pressure;Samples;Min_cycle;Max_cycle;Signal;HPM_P1;HPM_P2
2023/09/25 00:02:13;;;;;;;7.75;5.20;;;;;;;21.49;98.33;100133.22;5052226;28;20032;-84
2023/09/25 00:04:38;;;;;;;6.65;4.68;;;;;;;21.35;96.81;100095.13;5067299;28;20079;-82
2023/09/25 00:07:04;;;;;;;8.57;4.35;;;;;;;21.54;97.35;100116.91;5072679;28;20017;-80
2023/09/25 00:09:29;;;;;;;11.25;5.03;;;;;;;21.48;97.95;100126.22;5055075;28;20096;-82
2023/09/25 00:11:55;;;;;;;7.13;4.72;;;;;;;21.31;98.78;100131.25;5071530;28;20028;-81
2023/09/25 00:14:20;;;;;;;7.43;4.50;;;;;;;21.37;98.36;100147.19;5063911;28;20020;-81
2023/09/25 00:16:45;;;;;;;6.75;4.47;;;;;;;21.41;97.14;100115.69;5073900;28;20021;-80
2023/09/25 00:19:11;;;;;;;8.60;4.80;;;;;;;21.36;98.05;100133.91;5055997;28;20401;-81
2023/09/25 00:21:36;;;;;;;9.68;4.93;;;;;;;21.21;98.11;100111.28;5057327;28;20036;-80
2023/09/25 00:24:02;;;;;;;7.10;4.43;;;;;;;21.32;98.83;100141.81;5061687;28;20120;-81
2023/09/25 00:26:27;;;;;;;7.38;4.95;;;;;;;21.48;98.09;100164.19;5054705;28;20075;-81
2023/09/25 00:28:53;;;;;;;7.90;4.55;;;;;;;21.34;98.33;100146.97;5053046;28;20464;-81
2023/09/25 00:31:18;;;;;;;7.85;4.70;;;;;;;21.62;96.37;100156.97;5053293;28;20029;-83
2023/09/25 00:33:43;;;;;;;6.22;4.53;;;;;;;21.74;95.94;100159.25;5052940;28;20053;-82
2023/09/25 00:36:09;;;;;;;6.00;4.82;;;;;;;21.63;95.85;100149.63;5053076;28;20063;-81
2023/09/25 00:38:36;;;;;;;8.25;4.60;;;;;;;21.54;96.50;100163.03;5052840;28;20035;-80
2023/09/25 00:41:02;;;;;;;6.65;4.70;;;;;;;21.52;96.63;100165.22;5054638;28;20025;-81
2023/09/25 00:43:27;;;;;;;8.43;5.00;;;;;;;21.43;97.53;100156.94;5052937;28;20040;-81
2023/09/25 00:45:53;;;;;;;7.28;4.55;;;;;;;21.73;95.73;100164.97;5060104;28;20094;-81
2023/09/25 00:48:28;;;;;;;10.50;4.80;;;;;;;21.72;95.81;100163.34;5052802;28;20021;-81
2023/09/25 00:51:00;;;;;;;6.28;4.57;;;;;;;21.81;94.87;100164.31;5058071;28;20033;-81
2023/09/25 00:53:27;;;;;;;7.40;4.55;;;;;;;21.72;95.55;100164.19;5059830;28;20525;-85
2023/09/25 00:55:56;;;;;;;7.80;4.75;;;;;;;21.81;95.40;100164.31;5052179;28;20043;-84
2023/09/25 00:58:21;;;;;;;8.82;4.57;;;;;;;22.00;94.03;100165.13;5057138;28;20027;-81
2023/09/25 01:00:49;;;;;;;6.68;4.50;;;;;;;22.12;93.09;100174.78;5066600;28;20496;-81
2023/09/25 01:03:18;;;;;;;;;;;;;;;22.36;91.61;100178.25;5055794;28;20029;-81
2023/09/25 01:05:43;;;;;;;6.18;4.70;;;;;;;22.20;91.57;100161.34;5067276;28;19917;-81
2023/09/25 01:08:10;;;;;;;7.82;4.50;;;;;;;22.01;91.85;100146.97;5069290;28;20479;-81
2023/09/25 01:10:37;;;;;;;6.72;4.65;;;;;;;22.01;92.35;100163.25;5051576;28;20105;-80
2023/09/25 01:13:03;;;;;;;6.60;4.72;;;;;;;21.91;94.37;100166.91;5051742;28;20041;-80
2023/09/25 01:15:29;;;;;;;9.70;4.55;;;;;;;22.04;92.63;100157.22;5063387;28;20493;-81
2023/09/25 01:17:55;;;;;;;6.40;4.72;;;;;;;21.98;93.63;100172.78;5071636;28;20037;-80
2023/09/25 01:20:22;;;;;;;5.70;4.20;;;;;;;21.82;93.01;100130.63;5071867;28;20032;-83
2023/09/25 01:22:48;;;;;;;6.55;4.35;;;;;;;22.25;91.62;100161.31;5051634;28;20025;-81
2023/09/25 01:25:18;;;;;;;5.88;4.18;;;;;;;22.22;91.68;100178.16;5062820;28;20116;-81
2023/09/25 01:27:46;;;;;;;7.05;4.30;;;;;;;22.29;91.41;100175.09;5071720;28;20029;-81
2023/09/25 01:30:13;;;;;;;6.40;4.35;;;;;;;22.25;90.68;100182.22;5055275;28;20040;-80
2023/09/25 01:32:40;;;;;;;6.55;5.00;;;;;;;22.12;90.94;100164.72;5053942;28;20036;-81
2023/09/25 01:35:17;;;;;;;6.70;4.60;;;;;;;22.20;91.08;100179.53;5051305;28;20672;-80
2023/09/25 01:37:43;;;;;;;6.53;4.53;;;;;;;21.96;91.76;100161.41;5071212;28;20111;-82
2023/09/25 01:40:17;;;;;;;7.35;4.43;;;;;;;22.14;91.71;100176.09;5056877;28;20167;-84
2023/09/25 01:42:47;;;;;;;5.70;4.10;;;;;;;22.24;91.05;100175.19;5053537;28;20420;-81
2023/09/25 01:45:16;;;;;;;8.45;5.10;;;;;;;22.18;90.64;100154.59;5060109;28;20033;-82
2023/09/25 01:47:42;;;;;;;5.82;4.32;;;;;;;22.60;88.35;100171.91;5071111;28;20052;-83
2023/09/25 01:50:11;;;;;;;8.05;4.30;;;;;;;22.49;88.54;100159.59;5057835;28;20032;-81
2023/09/25 01:52:37;;;;;;;7.80;4.88;;;;;;;22.42;89.98;100182.50;5052400;28;20044;-81
2023/09/25 01:55:03;;;;;;;5.90;4.35;;;;;;;22.59;88.12;100167.56;5057941;28;20028;-81
2023/09/25 01:57:35;;;;;;;6.85;4.35;;;;;;;22.48;88.75;100180.53;5071368;28;20119;-82
2023/09/25 02:00:06;;;;;;;7.50;4.50;;;;;;;22.24;90.41;100183.31;5060140;28;20064;-81
2023/09/25 02:02:32;;;;;;;6.88;4.60;;;;;;;22.56;88.67;100181.78;5051301;28;20032;-81
2023/09/25 02:04:57;;;;;;;7.38;4.70;;;;;;;22.55;87.77;100182.84;5061630;28;20583;-81
2023/09/25 02:07:23;;;;;;;6.93;4.28;;;;;;;22.65;87.13;100186.22;5064742;28;20033;-81
2023/09/25 02:09:48;;;;;;;8.27;5.03;;;;;;;22.44;87.21;100174.88;5062096;28;20029;-85
2023/09/25 02:12:16;;;;;;;8.02;4.85;;;;;;;22.18;89.24;100179.84;5059359;28;20389;-82
2023/09/25 02:14:42;;;;;;;8.77;4.43;;;;;;;22.16;89.08;100162.22;5057517;28;20090;-81
2023/09/25 02:17:07;;;;;;;6.70;4.20;;;;;;;22.52;87.80;100180.75;5058836;28;20029;-81
2023/09/25 02:19:33;;;;;;;7.80;4.22;;;;;;;22.57;87.01;100175.22;5050296;28;20097;-81
2023/09/25 02:22:00;;;;;;;6.75;4.80;;;;;;;22.75;86.34;100206.19;5049959;28;20028;-85
2023/09/25 02:24:26;;;;;;;7.78;5.07;;;;;;;22.79;86.30;100207.22;5050402;28;20033;-81
2023/09/25 02:26:51;;;;;;;6.85;4.78;;;;;;;22.66;87.20;100187.84;5055588;28;20028;-80
2023/09/25 02:29:17;;;;;;;9.57;4.55;;;;;;;22.65;86.76;100179.97;5069520;28;20028;-81
2023/09/25 02:31:42;;;;;;;9.00;5.00;;;;;;;22.48;87.33;100163.41;5050351;28;20036;-85
2023/09/25 02:34:14;;;;;;;7.43;4.38;;;;;;;22.55;87.73;100191.00;5054009;28;20054;-81
2023/09/25 02:36:40;;;;;;;7.82;4.68;;;;;;;22.61;87.93;100189.81;5061553;28;20044;-81
2023/09/25 02:39:06;;;;;;;6.55;4.13;;;;;;;22.56;88.15;100195.34;5070258;28;20025;-81
2023/09/25 02:41:32;;;;;;;7.15;4.68;;;;;;;22.66;87.39;100204.16;5070894;28;20072;-82
2023/09/25 02:43:58;;;;;;;9.80;4.72;;;;;;;22.63;87.61;100193.06;5051282;28;20061;-81
2023/09/25 02:46:23;;;;;;;8.25;4.47;;;;;;;22.65;85.85;100185.41;5050591;28;20771;-82
2023/09/25 02:48:49;;;;;;;7.82;4.70;;;;;;;22.83;85.23;100203.59;5049681;28;20410;-81
2023/09/25 02:51:14;;;;;;;9.43;4.57;;;;;;;22.72;86.62;100202.16;5065469;28;20031;-81
2023/09/25 02:53:39;;;;;;;5.90;4.75;;;;;;;22.80;86.70;100214.25;5055410;28;20033;-81
2023/09/25 02:56:07;;;;;;;7.68;5.18;;;;;;;22.78;85.58;100206.41;5058579;28;20023;-82
2023/09/25 02:58:32;;;;;;;9.77;4.97;;;;;;;22.73;86.12;100203.75;5056457;28;20039;-83
2023/09/25 03:00:59;;;;;;;8.02;4.95;;;;;;;22.95;85.56;100207.78;5066524;28;20029;-82
2023/09/25 03:03:27;;;;;;;6.87;4.80;;;;;;;23.01;84.52;100209.31;5079293;28;20036;-81
2023/09/25 03:05:53;;;;;;;;;;;;;;;22.94;85.66;100220.53;5075469;28;20759;-82
2023/09/25 03:08:18;;;;;;;9.17;4.97;;;;;;;22.57;87.20;100194.25;5086382;28;19919;-82
2023/09/25 03:10:43;;;;;;;7.03;4.38;;;;;;;22.60;87.70;100218.94;5078978;28;20251;-86
2023/09/25 03:13:09;;;;;;;7.55;4.60;;;;;;;22.52;88.02;100221.50;5065023;28;20105;-81
2023/09/25 03:15:34;;;;;;;11.27;4.60;;;;;;;22.54;87.57;100216.59;5066781;28;20052;-83
2023/09/25 03:18:00;;;;;;;11.75;5.00;;;;;;;22.55;85.66;100196.44;5061813;28;20340;-82
2023/09/25 03:20:26;;;;;;;8.52;5.28;;;;;;;22.79;85.12;100232.47;5056686;28;20729;-82
2023/09/25 03:22:52;;;;;;;7.25;4.30;;;;;;;22.48;88.23;100213.13;5058769;28;20055;-81
2023/09/25 03:25:18;;;;;;;8.38;5.03;;;;;;;22.43;88.67;100216.75;5063139;28;20043;-82
2023/09/25 03:27:43;;;;;;;8.00;4.32;;;;;;;22.50;88.37;100205.50;5064009;28;20032;-85
2023/09/25 03:30:10;;;;;;;6.78;4.75;;;;;;;22.55;87.86;100229.06;5056992;28;20433;-81
2023/09/25 03:32:37;;;;;;;8.00;5.17;;;;;;;22.69;85.38;100226.41;5055781;28;20037;-82
2023/09/25 03:35:03;;;;;;;9.55;4.72;;;;;;;22.80;85.05;100239.56;5055342;28;20394;-84
2023/09/25 03:37:29;;;;;;;10.05;5.53;;;;;;;22.61;85.76;100225.16;5065451;28;20029;-84
2023/09/25 03:39:54;;;;;;;8.15;5.47;;;;;;;22.37;87.32;100204.34;5072590;28;20040;-85
2023/09/25 03:42:20;;;;;;;8.27;5.00;;;;;;;22.42;87.28;100225.97;5052961;28;20026;-83
2023/09/25 03:44:45;;;;;;;8.15;5.10;;;;;;;22.39;87.92;100233.91;5051827;28;20076;-83
2023/09/25 03:47:11;;;;;;;7.88;5.15;;;;;;;22.55;87.92;100243.44;5057829;28;20045;-83
2023/09/25 03:49:37;;;;;;;10.77;6.45;;;;;;;22.48;87.14;100228.63;5053351;28;20021;-84
2023/09/25 03:52:02;;;;;;;9.35;6.47;;;;;;;22.50;87.12;100231.88;5065704;28;20034;-83
2023/09/25 03:54:28;;;;;;;10.10;6.00;;;;;;;22.55;86.72;100239.94;5056085;28;20112;-83
2023/09/25 03:56:53;;;;;;;7.70;5.10;;;;;;;22.51;86.55;100234.28;5058079;28;20081;-83
2023/09/25 03:59:18;;;;;;;28.77;6.45;;;;;;;22.39;87.76;100237.44;5053619;28;20024;-83
2023/09/25 04:01:44;;;;;;;11.98;5.43;;;;;;;22.33;88.51;100243.22;5049234;28;20473;-83
2023/09/25 04:04:10;;;;;;;16.52;5.72;;;;;;;22.27;88.42;100245.19;5049349;28;20025;-83
2023/09/25 04:06:35;;;;;;;8.07;5.30;;;;;;;22.19;89.41;100232.25;5050737;28;20033;-83
2023/09/25 04:09:00;;;;;;;7.47;4.90;;;;;;;22.29;88.00;100229.41;5050704;28;20041;-83
2023/09/25 04:11:26;;;;;;;8.45;5.75;;;;;;;22.37;88.70;100239.66;5049060;28;20033;-83
2023/09/25 04:13:54;;;;;;;7.45;5.50;;;;;;;22.51;87.27;100239.69;5052464;28;20638;-85
2023/09/25 04:16:19;;;;;;;10.88;5.03;;;;;;;22.55;86.03;100238.00;5061628;28;20077;-83
2023/09/25 04:18:45;;;;;;;10.35;5.75;;;;;;;22.23;87.45;100222.41;5062023;28;20049;-82
2023/09/25 04:21:14;;;;;;;8.52;5.88;;;;;;;22.37;87.72;100249.69;5051708;28;20027;-83
2023/09/25 04:23:40;;;;;;;8.45;5.28;;;;;;;22.46;87.53;100251.47;5064655;28;20040;-83
2023/09/25 04:26:08;;;;;;;11.90;5.55;;;;;;;22.21;88.22;100227.31;5054408;28;20035;-83
2023/09/25 04:28:34;;;;;;;12.18;5.18;;;;;;;22.33;89.08;100243.22;5056483;28;20533;-83
2023/09/25 04:31:04;;;;;;;8.25;5.18;;;;;;;22.42;88.88;100246.91;5048533;28;20025;-84
2023/09/25 04:33:32;;;;;;;15.05;5.63;;;;;;;22.33;88.19;100241.34;5050098;28;20040;-83
2023/09/25 04:36:01;;;;;;;9.13;5.13;;;;;;;22.34;87.72;100234.00;5065708;28;20459;-83
2023/09/25 04:38:27;;;;;;;11.07;5.82;;;;;;;22.55;88.29;100273.34;5061405;28;20029;-85
2023/09/25 04:40:54;;;;;;;10.45;5.65;;;;;;;22.56;88.23;100268.75;5068600;28;20497;-83
2023/09/25 04:43:20;;;;;;;32.33;7.30;;;;;;;22.45;87.43;100257.19;5051422;28;20033;-84
2023/09/25 04:45:46;;;;;;;13.57;5.82;;;;;;;22.46;88.27;100286.78;5067052;28;20350;-83
2023/09/25 04:48:13;;;;;;;10.32;6.07;;;;;;;22.41;87.46;100257.00;5063622;28;20386;-84
2023/09/25 04:50:40;;;;;;;9.23;6.20;;;;;;;22.32;88.19;100263.38;5072503;28;20024;-83
2023/09/25 04:53:08;;;;;;;9.40;6.15;;;;;;;22.26;89.01;100266.13;5056827;28;20116;-83
2023/09/25 04:55:40;;;;;;;10.85;6.93;;;;;;;22.46;87.88;100286.00;5055692;28;20035;-84
2023/09/25 04:58:06;;;;;;;16.45;8.02;;;;;;;22.47;87.67;100282.16;5066183;28;20486;-81
2023/09/25 05:00:32;;;;;;;16.90;8.77;;;;;;;22.32;88.48;100283.19;5070912;28;20038;-83
2023/09/25 05:02:58;;;;;;;15.57;8.20;;;;;;;22.20;89.57;100277.34;5060021;28;20028;-84
2023/09/25 05:05:25;;;;;;;15.65;8.65;;;;;;;22.27;89.47;100281.34;5054672;28;20031;-83
2023/09/25 05:07:52;;;;;;;15.68;8.90;;;;;;;22.18;88.97;100263.22;5063336;28;20508;-84
2023/09/25 05:10:19;;;;;;;12.60;8.83;;;;;;;22.18;89.60;100279.53;5066252;28;20456;-83
2023/09/25 05:12:45;;;;;;;15.57;8.90;;;;;;;22.22;88.50;100258.84;5062718;28;20037;-83
2023/09/25 05:15:14;;;;;;;14.77;7.75;;;;;;;22.38;88.11;100284.72;5053233;28;20091;-83
2023/09/25 05:17:41;;;;;;;13.68;7.75;;;;;;;22.33;88.21;100281.25;5056180;28;20036;-83
2023/09/25 05:20:10;;;;;;;14.80;7.65;;;;;;;22.38;87.90;100281.22;5059857;28;20052;-83
2023/09/25 05:22:40;;;;;;;16.27;7.85;;;;;;;22.51;86.86;100288.63;5059674;28;20090;-82
2023/09/25 05:25:07;;;;;;;13.32;7.25;;;;;;;22.22;88.28;100270.50;5062370;28;20037;-83
2023/09/25 05:27:34;;;;;;;13.30;7.00;;;;;;;22.35;87.27;100269.03;5063926;28;20150;-83
2023/09/25 05:30:00;;;;;;;12.68;6.85;;;;;;;22.36;88.04;100288.84;5063041;28;20466;-83
2023/09/25 05:32:25;;;;;;;12.43;7.18;;;;;;;22.29;87.58;100286.47;5067734;28;20120;-83
2023/09/25 05:34:50;;;;;;;11.13;7.15;;;;;;;22.34;88.00;100300.00;5057198;28;20098;-83
2023/09/25 05:37:16;;;;;;;11.82;6.38;;;;;;;22.16;87.62;100265.44;5063051;28;20081;-83
2023/09/25 05:39:44;;;;;;;12.32;6.35;;;;;;;22.35;86.32;100282.63;5059485;28;20407;-83
2023/09/25 05:42:09;;;;;;;10.60;6.68;;;;;;;22.38;85.60;100295.59;5052988;28;20032;-83
2023/09/25 05:44:35;;;;;;;13.60;6.45;;;;;;;22.45;85.78;100306.09;5068983;28;20032;-83
2023/09/25 05:47:00;;;;;;;11.15;6.10;;;;;;;22.57;84.66;100308.41;5054934;28;20370;-83
2023/09/25 05:49:26;;;;;;;12.35;6.78;;;;;;;22.43;85.09;100302.88;5059634;28;20676;-82
2023/09/25 05:51:53;;;;;;;13.43;7.00;;;;;;;22.50;85.76;100305.25;5051544;28;20032;-83
2023/09/25 05:54:21;;;;;;;12.50;6.18;;;;;;;22.45;84.13;100296.06;5069378;28;20400;-83
2023/09/25 05:56:49;;;;;;;14.00;6.53;;;;;;;22.50;84.48;100314.19;5069899;28;20044;-83
2023/09/25 05:59:16;;;;;;;17.15;6.53;;;;;;;22.57;83.89;100322.78;5058413;28;20099;-83
2023/09/25 06:01:42;;;;;;;13.13;5.65;;;;;;;22.49;84.17;100303.63;5031490;28;20088;-83
2023/09/25 06:04:08;;;;;;;12.75;6.15;;;;;;;22.76;83.01;100319.25;5044775;28;20032;-83
2023/09/25 06:06:34;;;;;;;13.27;6.53;;;;;;;22.92;82.06;100323.38;5053391;28;20040;-83
2023/09/25 06:08:59;;;;;;;15.13;6.28;;;;;;;22.78;81.93;100311.63;5055313;28;20086;-83
2023/09/25 06:11:25;;;;;;;14.63;6.07;;;;;;;22.63;82.43;100297.16;5069790;28;20037;-84
2023/09/25 06:13:51;;;;;;;19.13;6.30;;;;;;;22.84;81.24;100305.00;5059237;28;20684;-84
2023/09/25 06:16:16;;;;;;;15.02;7.32;;;;;;;22.80;83.11;100310.25;5061211;28;20039;-84
2023/09/25 06:18:42;;;;;;;14.18;5.70;;;;;;;23.03;79.95;100318.63;5058864;28;20108;-83
2023/09/25 06:21:10;;;;;;;17.80;6.03;;;;;;;23.09;80.35;100336.50;5071473;28;20052;-83
2023/09/25 06:23:36;;;;;;;19.23;6.63;;;;;;;23.18;78.85;100323.81;5063729;28;20036;-84
2023/09/25 06:26:02;;;;;;;20.08;7.05;;;;;;;23.06;78.59;100321.53;5051147;28;20040;-83
2023/09/25 06:28:29;;;;;;;22.17;6.63;;;;;;;23.00;79.61;100332.78;5050060;28;20444;-84
2023/09/25 06:30:55;;;;;;;24.75;7.20;;;;;;;23.09;78.59;100328.34;5059762;28;20037;-85
2023/09/25 06:33:21;;;;;;;20.02;7.20;;;;;;;23.46;78.26;100345.69;5050340;28;20094;-84
2023/09/25 06:35:46;;;;;;;19.58;6.40;;;;;;;23.42;77.11;100350.09;5052572;28;20401;-84
2023/09/25 06:38:12;;;;;;;21.10;6.50;;;;;;;23.48;76.14;100351.63;5051067;28;20043;-84
2023/09/25 06:40:44;;;;;;;16.42;6.40;;;;;;;23.58;76.06;100348.75;5068977;28;20463;-84
2023/09/25 06:43:09;;;;;;;28.98;7.70;;;;;;;23.93;74.34;100370.22;5068027;28;20035;-83
2023/09/25 06:45:34;;;;;;;29.02;8.13;;;;;;;23.76;75.38;100348.97;5049421;28;20032;-86
2023/09/25 06:48:00;;;;;;;18.13;10.15;;;;;;;23.82;74.87;100353.22;5055103;28;20067;-84
2023/09/25 06:50:26;;;;;;;18.65;5.75;;;;;;;23.88;73.24;100364.84;5062114;28;20032;-84
2023/09/25 06:52:51;;;;;;;19.45;6.07;;;;;;;23.82;72.57;100355.97;5070480;28;20028;-84
2023/09/25 06:55:17;;;;;;;11.27;5.30;;;;;;;24.04;70.58;100360.72;5052489;28;20025;-83
2023/09/25 06:57:42;;;;;;;17.60;7.07;;;;;;;23.78;72.79;100346.78;5065618;28;20067;-84
2023/09/25 07:00:09;;;;;;;15.32;7.05;;;;;;;23.78;72.36;100352.22;5057105;28;20032;-83
2023/09/25 07:02:36;;;;;;;14.00;6.38;;;;;;;24.15;72.53;100358.59;5048170;28;20141;-84
2023/09/25 07:05:02;;;;;;;15.07;6.88;;;;;;;24.19;70.28;100354.16;5048901;28;20032;-85
2023/09/25 07:07:28;;;;;;;12.18;5.85;;;;;;;24.20;69.71;100353.06;5048665;28;20032;-84
2023/09/25 07:09:53;;;;;;;16.73;6.50;;;;;;;24.20;69.27;100363.97;5053207;28;20020;-85
2023/09/25 07:12:19;;;;;;;8.23;5.50;;;;;;;24.15;69.73;100372.22;5051742;28;20699;-85
2023/09/25 07:14:52;;;;;;;11.32;5.20;;;;;;;24.17;68.37;100359.09;5047967;28;20121;-84
2023/09/25 07:17:17;;;;;;;14.93;5.50;;;;;;;24.14;68.36;100371.44;5049669;28;20037;-83
2023/09/25 07:19:43;;;;;;;22.80;10.85;;;;;;;23.76;71.28;100348.97;5049016;28;20105;-83
2023/09/25 07:22:08;;;;;;;15.15;7.32;;;;;;;23.85;69.50;100353.44;5054565;28;20057;-84
2023/09/25 07:24:33;;;;;;;12.88;5.50;;;;;;;23.69;70.94;100362.16;5057683;28;20413;-84
2023/09/25 07:26:59;;;;;;;13.30;5.10;;;;;;;23.79;70.06;100359.28;5054539;28;20102;-83
2023/09/25 07:29:24;;;;;;;13.05;5.78;;;;;;;23.83;69.79;100352.94;5042246;28;20090;-84
2023/09/25 07:31:51;;;;;;;13.38;6.10;;;;;;;24.06;69.93;100381.09;5057954;28;20032;-83
2023/09/25 07:34:16;;;;;;;11.43;6.07;;;;;;;24.13;68.90;100363.53;5054297;28;20048;-85
2023/09/25 07:36:42;;;;;;;11.43;5.70;;;;;;;24.05;69.74;100374.06;5067976;28;20035;-83
2023/09/25 07:39:13;;;;;;;12.70;6.28;;;;;;;24.08;69.28;100380.00;5059505;28;20802;-82
2023/09/25 07:41:39;;;;;;;12.13;5.78;;;;;;;24.16;69.28;100379.31;5055908;28;20029;-83
2023/09/25 07:44:07;;;;;;;8.75;5.65;;;;;;;24.29;68.71;100373.03;5048170;28;20100;-84
2023/09/25 07:46:33;;;;;;;9.40;5.75;;;;;;;24.42;67.85;100360.53;5051219;28;20502;-84
2023/09/25 07:48:59;;;;;;;9.35;5.72;;;;;;;24.40;67.78;100368.19;5048392;28;20025;-83
2023/09/25 07:51:24;;;;;;;12.23;5.63;;;;;;;24.42;67.40;100361.34;5048338;28;20688;-83
2023/09/25 07:53:58;;;;;;;8.52;5.28;;;;;;;24.47;67.11;100374.03;5048373;28;20037;-83
2023/09/25 07:56:23;;;;;;;8.20;5.72;;;;;;;24.63;65.82;100374.56;5048531;28;20390;-84
2023/09/25 07:58:49;;;;;;;8.98;5.43;;;;;;;24.56;66.50;100355.06;5051161;28;20490;-83
2023/09/25 08:01:14;;;;;;;10.55;5.90;;;;;;;24.60;67.08;100351.44;5061425;28;20064;-85
2023/09/25 08:03:40;;;;;;;12.20;6.13;;;;;;;24.93;65.65;100364.06;5068538;28;20039;-83
2023/09/25 08:06:06;;;;;;;9.75;6.05;;;;;;;24.97;66.83;100346.00;5069585;28;20037;-83
2023/09/25 08:08:33;;;;;;;12.35;5.15;;;;;;;25.11;64.13;100327.66;5052976;28;20025;-82
2023/09/25 08:11:01;;;;;;;13.70;6.35;;;;;;;25.39;64.00;100360.28;5049405;28;20037;-84
2023/09/25 08:13:26;;;;;;;8.75;4.97;;;;;;;25.33;63.50;100353.34;5049473;28;20528;-83
2023/09/25 08:15:52;;;;;;;10.48;5.72;;;;;;;25.36;65.06;100366.38;5062072;28;20059;-83
2023/09/25 08:18:17;;;;;;;9.90;5.47;;;;;;;25.46;64.03;100357.94;5056272;28;20029;-84
2023/09/25 08:20:42;;;;;;;10.43;5.60;;;;;;;24.96;66.27;100331.53;5050006;28;20472;-84
2023/09/25 08:23:09;;;;;;;11.02;5.47;;;;;;;25.16;66.60;100341.16;5058048;28;20107;-83
2023/09/25 08:25:35;;;;;;;8.47;5.37;;;;;;;25.15;65.60;100341.47;5060981;28;20060;-83
2023/09/25 08:28:01;;;;;;;10.40;5.85;;;;;;;25.78;63.78;100366.94;5062463;28;20065;-84
2023/09/25 08:30:26;;;;;;;8.43;5.07;;;;;;;26.04;61.98;100362.41;5051579;28;20056;-83
2023/09/25 08:32:53;;;;;;;11.48;6.65;;;;;;;25.98;62.67;100358.22;5052844;28;20051;-83
2023/09/25 08:35:19;;;;;;;7.93;5.97;;;;;;;26.07;61.76;100360.97;5058246;28;20029;-83
2023/09/25 08:37:45;;;;;;;9.10;5.95;;;;;;;26.22;60.55;100352.38;5066940;28;20118;-83
2023/09/25 08:40:11;;;;;;;9.98;5.45;;;;;;;26.53;60.22;100348.72;5061363;28;20070;-83
2023/09/25 08:42:39;;;;;;;10.32;5.50;;;;;;;26.86;58.25;100356.53;5057284;28;20029;-82
2023/09/25 08:45:05;;;;;;;11.70;6.10;;;;;;;26.71;59.79;100363.28;5055267;28;20036;-85
2023/09/25 08:47:34;;;;;;;8.68;5.82;;;;;;;26.60;60.13;100353.75;5069009;28;20563;-83
2023/09/25 08:50:00;;;;;;;12.55;6.15;;;;;;;26.82;57.84;100337.19;5051321;28;20021;-83
2023/09/25 08:52:28;;;;;;;8.60;6.03;;;;;;;26.75;58.99;100338.81;5062917;28;20043;-83
2023/09/25 08:54:54;;;;;;;8.52;5.95;;;;;;;26.54;58.64;100316.72;5072339;28;20032;-83
2023/09/25 08:57:22;;;;;;;10.73;5.80;;;;;;;26.71;58.97;100352.34;5071877;28;20088;-83
2023/09/25 08:59:51;;;;;;;7.47;5.57;;;;;;;26.26;59.56;100356.06;5050543;28;20458;-82
2023/09/25 09:02:17;;;;;;;13.63;6.32;;;;;;;26.04;61.04;100342.50;5052255;28;20040;-84
2023/09/25 09:04:42;;;;;;;9.82;6.28;;;;;;;25.54;62.72;100332.59;5052530;28;20024;-84
2023/09/25 09:07:09;;;;;;;13.10;6.20;;;;;;;25.63;62.83;100333.44;5051093;28;20091;-83
2023/09/25 09:09:35;;;;;;;9.35;5.55;;;;;;;25.86;60.95;100344.31;5068125;28;20405;-83
2023/09/25 09:12:04;;;;;;;8.77;5.88;;;;;;;26.42;59.16;100358.38;5064642;28;20032;-82
2023/09/25 09:14:55;;;;;;;9.63;5.93;;;;;;;26.58;58.08;100362.31;5070916;28;20052;-83
2023/09/25 09:17:26;;;;;;;9.43;5.55;;;;;;;26.03;60.28;100336.22;5068276;28;20071;-83
2023/09/25 09:19:52;;;;;;;9.80;5.47;;;;;;;26.37;60.73;100351.09;5056070;28;20025;-83
2023/09/25 09:22:19;;;;;;;9.90;6.07;;;;;;;26.18;60.84;100328.72;5052051;28;20401;-83
2023/09/25 09:24:45;;;;;;;9.03;5.40;;;;;;;26.48;59.93;100342.59;5051874;28;20029;-85
2023/09/25 09:27:14;;;;;;;8.38;5.80;;;;;;;26.67;59.66;100337.69;5051982;28;20036;-83
2023/09/25 09:29:42;;;;;;;9.35;6.10;;;;;;;26.76;57.30;100321.28;5067813;28;20033;-84
2023/09/25 09:32:10;;;;;;;9.77;5.60;;;;;;;26.65;58.31;100323.53;5062203;28;20037;-83
2023/09/25 09:34:38;;;;;;;10.82;5.90;;;;;;;26.69;58.95;100329.16;5068314;28;20116;-83
2023/09/25 09:37:08;;;;;;;12.45;6.32;;;;;;;26.76;57.73;100324.00;5059064;28;20031;-83
2023/09/25 09:39:34;;;;;;;10.13;6.10;;;;;;;26.78;58.38;100328.03;5062651;28;20060;-83
2023/09/25 09:42:05;;;;;;;10.50;6.03;;;;;;;26.41;59.06;100330.22;5057820;28;20029;-83
2023/09/25 09:44:35;;;;;;;7.90;6.07;;;;;;;26.30;59.25;100328.13;5054553;28;20132;-82
2023/09/25 09:47:07;;;;;;;9.45;6.18;;;;;;;26.67;58.15;100329.47;5060459;28;20053;-83
2023/09/25 09:49:36;;;;;;;9.80;6.00;;;;;;;26.66;56.86;100316.91;5059163;28;20033;-83
2023/09/25 09:52:03;;;;;;;11.05;6.22;;;;;;;26.85;56.28;100339.31;5056596;28;20118;-84
2023/09/25 09:54:34;;;;;;;7.05;5.78;;;;;;;26.49;58.75;100336.03;5052754;28;20073;-83
2023/09/25 09:57:00;;;;;;;10.65;6.50;;;;;;;26.46;58.28;100332.00;5062168;28;20037;-84
2023/09/25 09:59:25;;;;;;;10.32;5.72;;;;;;;26.75;58.26;100316.94;5052878;28;20037;-83
2023/09/25 10:01:52;;;;;;;9.32;6.32;;;;;;;26.62;58.31;100318.69;5053467;28;20753;-84
2023/09/25 10:04:20;;;;;;;14.43;5.90;;;;;;;27.25;56.95;100314.50;5060186;28;20043;-86
2023/09/25 10:06:51;;;;;;;10.55;5.85;;;;;;;27.32;55.54;100314.00;5063524;28;20033;-83
2023/09/25 10:09:18;;;;;;;9.57;6.43;;;;;;;27.51;54.36;100310.88;5052559;28;20101;-84
2023/09/25 10:11:47;;;;;;;9.55;6.05;;;;;;;27.59;54.20;100310.06;5054130;28;20110;-83
2023/09/25 10:14:12;;;;;;;8.90;5.35;;;;;;;27.57;53.98;100293.16;5057746;28;20033;-84
2023/09/25 10:17:03;;;;;;;11.50;6.35;;;;;;;27.89;53.71;100287.41;5049637;28;20052;-84
2023/09/25 10:19:40;;;;;;;9.77;5.43;;;;;;;27.45;54.58;100306.72;5050986;28;20032;-85
2023/09/25 10:22:20;;;;;;;7.68;5.95;;;;;;;27.87;54.12;100308.84;5063638;28;20455;-83
2023/09/25 10:24:59;;;;;;;9.15;5.70;;;;;;;28.32;51.66;100300.03;5055644;28;20155;-84
2023/09/25 10:27:25;;;;;;;10.65;5.55;;;;;;;28.32;51.53;100300.88;5060779;28;20029;-84
2023/09/25 10:30:11;;;;;;;7.57;5.30;;;;;;;28.80;50.43;100293.25;5056069;28;20044;-84
2023/09/25 10:32:40;;;;;;;9.33;4.90;;;;;;;28.96;48.78;100290.72;5055268;28;20028;-84
2023/09/25 10:35:37;;;;;;;9.43;5.63;;;;;;;28.99;47.99;100295.50;5055321;28;20026;-84
2023/09/25 10:38:13;;;;;;;10.38;6.90;;;;;;;28.98;48.89;100282.94;5049273;28;20017;-82
2023/09/25 10:40:43;;;;;;;8.90;5.63;;;;;;;28.70;49.27;100278.00;5050309;28;20039;-84
2023/09/25 10:43:09;;;;;;;9.68;5.22;;;;;;;29.03;47.03;100268.97;5064390;28;20111;-83
2023/09/25 10:45:38;;;;;;;8.85;4.65;;;;;;;29.03;46.69;100275.28;5065545;28;20116;-83
2023/09/25 10:48:04;;;;;;;8.80;4.97;;;;;;;28.81;45.66;100275.66;5058703;28;20044;-86
2023/09/25 10:50:29;;;;;;;9.02;4.65;;;;;;;28.67;46.19;100267.72;5060644;28;20405;-83
2023/09/25 10:52:56;;;;;;;6.55;4.63;;;;;;;28.57;46.20;100255.19;5068070;28;20977;-85
2023/09/25 10:55:21;;;;;;;8.30;4.97;;;;;;;28.88;45.74;100255.91;5063684;28;20112;-83
2023/09/25 10:57:47;;;;;;;8.40;5.03;;;;;;;29.02;45.93;100257.19;5060880;28;20674;-84
2023/09/25 11:00:15;;;;;;;9.15;4.93;;;;;;;29.40;44.83;100260.84;5050961;28;20039;-83
2023/09/25 11:02:41;;;;;;;8.70;5.20;;;;;;;29.50;43.94;100246.66;5062900;28;20497;-84
2023/09/25 11:05:07;;;;;;;12.73;5.20;;;;;;;29.67;43.49;100253.91;5051648;28;20071;-84
2023/09/25 11:07:36;;;;;;;9.82;5.22;;;;;;;29.61;44.21;100256.06;5048540;28;20033;-83
2023/09/25 11:10:02;;;;;;;10.57;4.32;;;;;;;29.09;42.79;100234.69;5050911;28;20032;-84
2023/09/25 11:12:29;;;;;;;8.90;4.40;;;;;;;28.58;42.57;100253.25;5056992;28;20506;-83
2023/09/25 11:14:55;;;;;;;11.05;4.38;;;;;;;27.83;43.96;100253.88;5062618;28;20302;-83
2023/09/25 11:17:20;;;;;;;9.55;4.25;;;;;;;27.64;43.65;100241.41;5068785;28;20490;-82
2023/09/25 11:19:46;;;;;;;6.57;4.43;;;;;;;27.82;43.30;100227.59;5053499;28;20388;-84
2023/09/25 11:22:11;;;;;;;9.00;4.60;;;;;;;27.85;43.07;100227.75;5062695;28;20021;-85